Hlavní strana
METAR-TAF:

METAR-TAF

Letiště :

Mezinárodní letiště Gibraltar

Gibraltar, Gibraltar

zeměpisná šířka: 36-09N, zeměpisná délka: 005-21W, výška: 5 m

Aktuální stav počasí

Zpráva byla vytvořena před 39 minutami, v 17:50 UTC
Jihojihozápadní vítr 10 kt
Teplota 27°C
Vlhkost vzduchu 51%
Tlak 1013 hPa
Viditelnost 10 km a více
Žádná oblačnost pod 1500 m, nevyskytují se cumulonimby.

METAR: LXGB 201750Z 20010KT CAVOK 27/16 Q1013 NOSIG

Čas: 20:29 (18:29 UTC)

Předpověď počasí

Zpráva byla vytvořena před 1 hodinou a 38 minutami, v 16:51 UTC
Předpověď platná od 20 v 18 UTC do 20 v 22 UTC
Jihojihozápadní vítr 13 kt
Viditelnost 10 km a více
Žádná oblačnost pod 1500 m, nevyskytují se cumulonimby.
Změna
od 20 v 18 UTC do 20 v 20 UTC
Západojihozápadní vítr 8 kt

TAF: LXGB 201651Z 2018/2022 20013KT CAVOK 520001 BECMG 2018/2020 25008KT 50////

Stav a předpovědi počasí z více než 4 000 letišť (zprávy METAR a TAF).

Červené a žluté tečky na mapě představují dostupné meteorologické stanice.

Když kurzor umístíte na tečku, zobrazí se název stanice.

Pak kliknutím zobrazíte stav a předpověď počasí.

Chcete-li změnit mapu, kliknutím na zelené tlačítko se znaménkem +mapu přiblížíte, kliknutím na zelené tlačítko se znaménkem – mapu oddálíte a kliknutím na zelené šipky přejdete na sousední mapy.


METAR-TAF: